Time;durP1;ratioP1;P1;durP2;ratioP2;P2;SDS_P1;SDS_P2;PMS_P1;PMS_P2;Temp;Humidity;BMP_temperature;BMP_pressure;BME280_temperature;BME280_humidity;BME280_pressure;Samples;Min_cycle;Max_cycle;Signal;HPM_P1;HPM_P2
2021/04/18 00:02:10;;;;;;;21.55;16.65;;;;;;;;;;5109592;28;20068;-53
2021/04/18 00:04:35;;;;;;;20.40;15.63;;;;;;;;;;5112548;28;20016;-51
2021/04/18 00:07:01;;;;;;;21.52;15.75;;;;;;;;;;5112555;28;20106;-50
2021/04/18 00:09:26;;;;;;;23.63;16.23;;;;;;;;;;5112503;28;20031;-52
2021/04/18 00:11:51;;;;;;;21.13;16.80;;;;;;;;;;5124442;28;20030;-49
2021/04/18 00:14:16;;;;;;;22.50;16.60;;;;;;;;;;5133207;28;20026;-49
2021/04/18 00:16:42;;;;;;;24.00;17.33;;;;;;;;;;5133228;28;20023;-50
2021/04/18 00:19:07;;;;;;;19.25;15.70;;;;;;;;;;5132902;28;20539;-51
2021/04/18 00:21:32;;;;;;;22.70;17.40;;;;;;;;;;5129691;27;20120;-50
2021/04/18 00:23:58;;;;;;;25.70;17.13;;;;;;;;;;5132855;27;20018;-52
2021/04/18 00:26:23;;;;;;;27.35;20.45;;;;;;;;;;5132630;27;20011;-48
2021/04/18 00:28:48;;;;;;;28.33;19.42;;;;;;;;;;5131713;27;20371;-50
2021/04/18 00:31:13;;;;;;;24.15;19.38;;;;;;;;;;5129529;28;20047;-51
2021/04/18 00:33:39;;;;;;;24.67;20.67;;;;;;;;;;5132834;28;20015;-47
2021/04/18 00:36:05;;;;;;;26.05;19.17;;;;;;;;;;5132525;28;20374;-47
2021/04/18 00:38:30;;;;;;;26.40;19.88;;;;;;;;;;5132755;27;20030;-50
2021/04/18 00:40:55;;;;;;;24.95;19.85;;;;;;;;;;5131525;28;20019;-54
2021/04/18 00:43:24;;;;;;;26.77;21.02;;;;;;;;;;5129062;28;20019;-48
2021/04/18 00:45:49;;;;;;;24.83;17.88;;;;;;;;;;5132636;28;20023;-47
2021/04/18 00:48:14;;;;;;;26.52;19.98;;;;;;;;;;5132264;28;20049;-48
2021/04/18 00:50:40;;;;;;;29.85;22.02;;;;;;;;;;5108925;27;652732;-48
2021/04/18 00:53:07;;;;;;;23.13;19.23;;;;;;;;;;5130359;27;20479;-51
2021/04/18 00:55:33;;;;;;;23.15;18.60;;;;;;;;;;5133144;27;20553;-52
2021/04/18 00:57:59;;;;;;;31.10;21.33;;;;;;;;;;5133233;27;20071;-52
2021/04/18 01:00:24;;;;;;;25.52;20.30;;;;;;;;;;5123578;28;20110;-51
2021/04/18 01:02:50;;;;;;;25.33;19.58;;;;;;;;;;5109883;28;20024;-51
2021/04/18 01:05:15;;;;;;;29.77;21.45;;;;;;;;;;5112534;28;20019;-48
2021/04/18 01:07:41;;;;;;;29.88;19.40;;;;;;;;;;5113060;28;20023;-49
2021/04/18 01:10:07;;;;;;;29.15;21.92;;;;;;;;;;5112135;28;20093;-50
2021/04/18 01:12:33;;;;;;;28.00;21.38;;;;;;;;;;5109737;28;20015;-51
2021/04/18 01:14:58;;;;;;;25.02;20.17;;;;;;;;;;5112663;28;20019;-49
2021/04/18 01:17:23;;;;;;;27.25;19.35;;;;;;;;;;5112698;28;20065;-48
2021/04/18 01:19:49;;;;;;;28.60;21.80;;;;;;;;;;5112631;28;20069;-52
2021/04/18 01:22:14;;;;;;;26.42;20.15;;;;;;;;;;5109627;28;20039;-51
2021/04/18 01:24:39;;;;;;;26.60;20.85;;;;;;;;;;5112984;28;20479;-48
2021/04/18 01:27:05;;;;;;;28.73;22.27;;;;;;;;;;5112301;28;20028;-52
2021/04/18 01:29:31;;;;;;;29.83;21.88;;;;;;;;;;5112318;28;20019;-52
2021/04/18 01:31:56;;;;;;;26.42;20.98;;;;;;;;;;5109502;28;20019;-51
2021/04/18 01:34:22;;;;;;;26.45;20.85;;;;;;;;;;5112433;28;20028;-48
2021/04/18 01:36:47;;;;;;;25.55;19.83;;;;;;;;;;5112621;28;20008;-50
2021/04/18 01:39:13;;;;;;;31.48;20.83;;;;;;;;;;5112442;28;20023;-49
2021/04/18 01:41:38;;;;;;;28.15;20.88;;;;;;;;;;5111880;28;20016;-50
2021/04/18 01:44:04;;;;;;;28.42;20.05;;;;;;;;;;5116059;28;20598;-51
2021/04/18 01:46:29;;;;;;;26.65;21.52;;;;;;;;;;5116060;28;20137;-50
2021/04/18 01:48:54;;;;;;;25.88;20.48;;;;;;;;;;5136478;27;20366;-50
2021/04/18 01:51:20;;;;;;;26.85;21.08;;;;;;;;;;5133120;27;20031;-52
2021/04/18 01:53:45;;;;;;;27.27;20.95;;;;;;;;;;5136716;27;20019;-51
2021/04/18 01:56:11;;;;;;;27.42;20.73;;;;;;;;;;5136096;27;20015;-51
2021/04/18 01:58:36;;;;;;;26.10;20.77;;;;;;;;;;5136326;27;20022;-52
2021/04/18 02:01:01;;;;;;;26.35;20.70;;;;;;;;;;5118871;27;20024;-53
2021/04/18 02:03:26;;;;;;;22.90;19.48;;;;;;;;;;5114332;28;20011;-52
2021/04/18 02:05:52;;;;;;;26.38;20.13;;;;;;;;;;5115500;28;20069;-45
2021/04/18 02:08:17;;;;;;;29.42;22.27;;;;;;;;;;5115843;28;20114;-48
2021/04/18 02:10:42;;;;;;;28.45;21.08;;;;;;;;;;5115141;28;20019;-50
2021/04/18 02:13:07;;;;;;;26.13;21.58;;;;;;;;;;5112528;27;20020;-51
2021/04/18 02:15:32;;;;;;;27.65;21.33;;;;;;;;;;5115571;28;20019;-47
2021/04/18 02:17:58;;;;;;;26.95;22.35;;;;;;;;;;5115633;28;20024;-50
2021/04/18 02:20:23;;;;;;;25.45;21.05;;;;;;;;;;5115088;28;20148;-51
2021/04/18 02:22:49;;;;;;;28.67;21.80;;;;;;;;;;5112499;28;20024;-50
2021/04/18 02:25:14;;;;;;;29.60;23.35;;;;;;;;;;5123703;27;20023;-51
2021/04/18 02:27:40;;;;;;;30.35;21.88;;;;;;;;;;5135841;27;20016;-51
2021/04/18 02:30:06;;;;;;;27.58;21.67;;;;;;;;;;5135594;27;20114;-47
2021/04/18 02:32:32;;;;;;;27.77;20.65;;;;;;;;;;5132636;27;20497;-53
2021/04/18 02:34:57;;;;;;;29.17;21.92;;;;;;;;;;5135746;27;20050;-48
2021/04/18 02:37:22;;;;;;;29.02;21.38;;;;;;;;;;5135559;27;20015;-51
2021/04/18 02:39:48;;;;;;;27.05;20.90;;;;;;;;;;5116058;27;20432;-46
2021/04/18 02:42:13;;;;;;;28.05;21.15;;;;;;;;;;5111659;28;20479;-49
2021/04/18 02:44:38;;;;;;;28.90;22.30;;;;;;;;;;5114935;28;20028;-52
2021/04/18 02:47:03;;;;;;;27.92;19.52;;;;;;;;;;5114820;28;20490;-49
2021/04/18 02:49:29;;;;;;;24.17;19.45;;;;;;;;;;5114656;28;20030;-46
2021/04/18 02:51:54;;;;;;;24.98;20.05;;;;;;;;;;5110458;28;20123;-50
2021/04/18 02:54:19;;;;;;;27.88;20.65;;;;;;;;;;5114907;28;20016;-49
2021/04/18 02:56:44;;;;;;;27.42;20.92;;;;;;;;;;5114406;28;20016;-49
2021/04/18 02:59:10;;;;;;;25.50;21.25;;;;;;;;;;5114533;28;20378;-48
2021/04/18 03:01:36;;;;;;;26.95;22.00;;;;;;;;;;5111429;28;20493;-52
2021/04/18 03:04:01;;;;;;;27.73;21.95;;;;;;;;;;5114530;28;20080;-51
2021/04/18 03:06:26;;;;;;;26.67;21.67;;;;;;;;;;5114410;28;20073;-51
2021/04/18 03:08:52;;;;;;;27.02;21.35;;;;;;;;;;5114400;28;20062;-52
2021/04/18 03:11:17;;;;;;;28.08;20.75;;;;;;;;;;5110867;28;20114;-49
2021/04/18 03:13:43;;;;;;;29.90;21.35;;;;;;;;;;5114619;28;20020;-50
2021/04/18 03:16:08;;;;;;;30.23;22.58;;;;;;;;;;5114281;28;20016;-51
2021/04/18 03:18:33;;;;;;;28.13;21.88;;;;;;;;;;5112988;28;20078;-47
2021/04/18 03:20:58;;;;;;;29.10;22.48;;;;;;;;;;5113048;28;20026;-48
2021/04/18 03:23:24;;;;;;;28.77;23.25;;;;;;;;;;5112384;28;20012;-50
2021/04/18 03:25:49;;;;;;;29.67;22.23;;;;;;;;;;5127623;27;20027;-54
2021/04/18 03:28:14;;;;;;;26.15;21.33;;;;;;;;;;5134577;27;20015;-51
2021/04/18 03:30:39;;;;;;;26.73;21.88;;;;;;;;;;5134278;27;20023;-49
2021/04/18 03:33:05;;;;;;;28.88;21.90;;;;;;;;;;5131362;27;20013;-49
2021/04/18 03:35:30;;;;;;;28.15;21.92;;;;;;;;;;5134475;27;20011;-49
2021/04/18 03:37:55;;;;;;;27.25;23.27;;;;;;;;;;5134326;27;20016;-48
2021/04/18 03:40:21;;;;;;;27.15;20.98;;;;;;;;;;5134083;27;20015;-49
2021/04/18 03:42:46;;;;;;;26.08;22.20;;;;;;;;;;5131342;27;20449;-52
2021/04/18 03:45:12;;;;;;;29.95;22.65;;;;;;;;;;5134548;27;20022;-52
2021/04/18 03:47:37;;;;;;;27.42;23.50;;;;;;;;;;5134491;27;20035;-51
2021/04/18 03:50:03;;;;;;;26.75;21.95;;;;;;;;;;5133865;27;20019;-48
2021/04/18 03:52:28;;;;;;;30.30;21.25;;;;;;;;;;5130862;27;20058;-50
2021/04/18 03:54:53;;;;;;;28.38;22.40;;;;;;;;;;5134040;27;20019;-51
2021/04/18 03:57:19;;;;;;;27.15;21.85;;;;;;;;;;5133885;27;20015;-51
2021/04/18 03:59:44;;;;;;;28.23;22.95;;;;;;;;;;5133784;27;20071;-49
2021/04/18 04:02:09;;;;;;;28.83;22.33;;;;;;;;;;5130681;27;20027;-49
2021/04/18 04:04:34;;;;;;;27.90;21.38;;;;;;;;;;5133826;27;20027;-52
2021/04/18 04:07:00;;;;;;;28.65;22.33;;;;;;;;;;5133860;27;20031;-52
2021/04/18 04:09:25;;;;;;;28.98;21.90;;;;;;;;;;5133839;27;20019;-53
2021/04/18 04:11:51;;;;;;;27.23;21.40;;;;;;;;;;5130339;27;20019;-51
2021/04/18 04:14:16;;;;;;;26.15;20.80;;;;;;;;;;5134227;27;20019;-49
2021/04/18 04:16:41;;;;;;;27.85;20.98;;;;;;;;;;5125276;27;20024;-52
2021/04/18 04:19:07;;;;;;;29.50;22.63;;;;;;;;;;5113156;28;20015;-51
2021/04/18 04:21:32;;;;;;;30.42;22.27;;;;;;;;;;5110084;28;20264;-51
2021/04/18 04:23:57;;;;;;;32.42;22.45;;;;;;;;;;5113174;28;20016;-51
2021/04/18 04:26:22;;;;;;;27.30;21.38;;;;;;;;;;5111839;28;20493;-51
2021/04/18 04:28:48;;;;;;;27.77;22.00;;;;;;;;;;5113251;28;20466;-51
2021/04/18 04:31:13;;;;;;;27.83;22.92;;;;;;;;;;5109914;28;20019;-53
2021/04/18 04:33:38;;;;;;;30.50;21.80;;;;;;;;;;5113153;28;20425;-50
2021/04/18 04:36:04;;;;;;;25.42;22.42;;;;;;;;;;5113086;28;20043;-51
2021/04/18 04:38:30;;;;;;;26.13;21.10;;;;;;;;;;5113331;28;20531;-51
2021/04/18 04:40:55;;;;;;;27.52;21.00;;;;;;;;;;5111863;28;20506;-49
2021/04/18 04:43:21;;;;;;;30.10;21.45;;;;;;;;;;5110714;28;20051;-52
2021/04/18 04:45:46;;;;;;;25.17;20.10;;;;;;;;;;5113279;28;20102;-52
2021/04/18 04:48:11;;;;;;;28.60;21.98;;;;;;;;;;5112888;28;20035;-49
2021/04/18 04:50:37;;;;;;;24.90;19.95;;;;;;;;;;5112671;28;20100;-53
2021/04/18 04:53:02;;;;;;;29.63;21.65;;;;;;;;;;5109590;28;20047;-49
2021/04/18 04:55:27;;;;;;;27.90;21.50;;;;;;;;;;5112730;28;20015;-49
2021/04/18 04:57:52;;;;;;;27.85;21.58;;;;;;;;;;5112768;28;20012;-53
2021/04/18 05:00:18;;;;;;;24.67;19.52;;;;;;;;;;5112754;28;20023;-48
2021/04/18 05:02:43;;;;;;;24.08;19.42;;;;;;;;;;5115526;28;20076;-47
2021/04/18 05:05:08;;;;;;;26.00;20.73;;;;;;;;;;5133413;28;20043;-49
2021/04/18 05:07:34;;;;;;;22.60;19.25;;;;;;;;;;5133418;27;20023;-51
2021/04/18 05:09:59;;;;;;;25.45;20.17;;;;;;;;;;5131624;28;20050;-52
2021/04/18 05:12:24;;;;;;;25.10;21.13;;;;;;;;;;5129947;28;20011;-51
2021/04/18 05:14:49;;;;;;;24.08;19.60;;;;;;;;;;5133362;27;20015;-53
2021/04/18 05:17:14;;;;;;;24.35;18.98;;;;;;;;;;5137295;27;20030;-53
2021/04/18 05:19:40;;;;;;;25.45;20.63;;;;;;;;;;5136893;27;20027;-47
2021/04/18 05:22:05;;;;;;;23.90;19.92;;;;;;;;;;5133882;27;20027;-49
2021/04/18 05:24:31;;;;;;;24.05;19.33;;;;;;;;;;5137104;27;20023;-51
2021/04/18 05:26:56;;;;;;;24.92;19.70;;;;;;;;;;5136728;27;20102;-53
2021/04/18 05:29:23;;;;;;;23.52;19.67;;;;;;;;;;5136959;27;20033;-52
2021/04/18 05:31:48;;;;;;;24.38;19.45;;;;;;;;;;5133652;27;20478;-52
2021/04/18 05:34:13;;;;;;;25.40;20.83;;;;;;;;;;5136653;27;20021;-49
2021/04/18 05:36:39;;;;;;;22.73;20.10;;;;;;;;;;5136816;27;20022;-48
2021/04/18 05:39:08;;;;;;;22.02;18.08;;;;;;;;;;5136471;27;20455;-48
2021/04/18 05:41:33;;;;;;;24.08;18.92;;;;;;;;;;5133296;27;20594;-49
2021/04/18 05:43:58;;;;;;;21.25;18.38;;;;;;;;;;5136606;27;20051;-51
2021/04/18 05:46:24;;;;;;;23.33;18.02;;;;;;;;;;5136645;27;20459;-53
2021/04/18 05:48:49;;;;;;;22.67;19.33;;;;;;;;;;5136746;27;20025;-51
2021/04/18 05:51:14;;;;;;;21.65;19.27;;;;;;;;;;5132919;27;20419;-53
2021/04/18 05:53:39;;;;;;;22.42;18.15;;;;;;;;;;5129540;27;20012;-50
2021/04/18 05:56:05;;;;;;;21.35;17.70;;;;;;;;;;5115390;28;20016;-50
2021/04/18 05:58:30;;;;;;;24.05;18.45;;;;;;;;;;5115865;28;20069;-52
2021/04/18 06:00:55;;;;;;;23.92;18.98;;;;;;;;;;5114868;28;20035;-50
2021/04/18 06:03:20;;;;;;;24.15;19.83;;;;;;;;;;5113147;28;20031;-52
2021/04/18 06:05:46;;;;;;;25.05;18.73;;;;;;;;;;5115509;28;20102;-50
2021/04/18 06:08:11;;;;;;;22.10;19.15;;;;;;;;;;5115588;28;20068;-51
2021/04/18 06:10:36;;;;;;;22.52;18.20;;;;;;;;;;5115052;28;20069;-53
2021/04/18 06:13:01;;;;;;;22.67;19.48;;;;;;;;;;5112384;28;20049;-48
2021/04/18 06:15:27;;;;;;;23.67;18.75;;;;;;;;;;5115554;28;20011;-48
2021/04/18 06:17:52;;;;;;;24.83;18.75;;;;;;;;;;5131521;27;20019;-53
2021/04/18 06:20:17;;;;;;;25.08;19.42;;;;;;;;;;5135903;27;20023;-50
2021/04/18 06:22:43;;;;;;;23.25;18.85;;;;;;;;;;5132825;27;20068;-48
2021/04/18 06:25:08;;;;;;;25.20;19.65;;;;;;;;;;5135578;27;20023;-53
2021/04/18 06:27:33;;;;;;;21.33;18.17;;;;;;;;;;5135782;27;20018;-51
2021/04/18 06:29:59;;;;;;;21.08;17.23;;;;;;;;;;5135601;27;20110;-51
2021/04/18 06:32:24;;;;;;;19.83;17.15;;;;;;;;;;5132634;27;20455;-52
2021/04/18 06:34:49;;;;;;;21.80;17.27;;;;;;;;;;5135671;27;20046;-51
2021/04/18 06:37:14;;;;;;;21.10;17.77;;;;;;;;;;5135551;27;20047;-51
2021/04/18 06:39:39;;;;;;;20.20;16.38;;;;;;;;;;5135264;27;20102;-52
2021/04/18 06:42:05;;;;;;;17.67;14.60;;;;;;;;;;5132066;27;20103;-48
2021/04/18 06:44:31;;;;;;;19.77;16.10;;;;;;;;;;5135466;27;20026;-50
2021/04/18 06:46:57;;;;;;;21.25;18.45;;;;;;;;;;5135404;27;20018;-51
2021/04/18 06:49:22;;;;;;;20.50;17.13;;;;;;;;;;5135323;27;20034;-49
2021/04/18 06:51:47;;;;;;;21.23;16.75;;;;;;;;;;5131994;27;20053;-51
2021/04/18 06:54:13;;;;;;;18.95;15.75;;;;;;;;;;5135098;27;20026;-47
2021/04/18 06:56:38;;;;;;;21.17;16.35;;;;;;;;;;5134995;27;20018;-48
2021/04/18 06:59:06;;;;;;;22.35;17.67;;;;;;;;;;5135115;27;20027;-53
2021/04/18 07:01:33;;;;;;;20.92;17.02;;;;;;;;;;5131837;27;20489;-49
2021/04/18 07:04:10;;;;;;;20.73;17.23;;;;;;;;;;5134803;27;20031;-52
2021/04/18 07:06:37;;;;;;;18.08;15.88;;;;;;;;;;5135090;27;20462;-50
2021/04/18 07:09:02;;;;;;;19.90;16.27;;;;;;;;;;5135150;27;20183;-52
2021/04/18 07:11:27;;;;;;;21.98;16.35;;;;;;;;;;5131473;27;20513;-52
2021/04/18 07:13:52;;;;;;;22.33;17.70;;;;;;;;;;5134676;27;20019;-49
2021/04/18 07:16:22;;;;;;;19.33;16.45;;;;;;;;;;5132046;27;20068;-52
2021/04/18 07:18:47;;;;;;;22.60;16.65;;;;;;;;;;5114654;28;20372;-51
2021/04/18 07:21:12;;;;;;;17.60;15.23;;;;;;;;;;5111112;28;20069;-46
2021/04/18 07:23:37;;;;;;;17.17;14.93;;;;;;;;;;5113754;28;20019;-54
2021/04/18 07:26:35;;;;;;;21.30;15.52;;;;;;;;;;5113763;28;20020;-51
2021/04/18 07:29:17;;;;;;;18.70;16.13;;;;;;;;;;5068842;28;20399;-50
2021/04/18 07:31:42;;;;;;;19.95;17.13;;;;;;;;;;5110691;28;20047;-52
2021/04/18 07:34:09;;;;;;;18.75;15.35;;;;;;;;;;5113772;28;20034;-52
2021/04/18 07:36:35;;;;;;;19.60;16.63;;;;;;;;;;5113961;28;20115;-51
2021/04/18 07:39:01;;;;;;;20.10;16.15;;;;;;;;;;5113590;28;20016;-52
2021/04/18 07:41:26;;;;;;;18.45;16.50;;;;;;;;;;5110376;28;20321;-49
2021/04/18 07:43:52;;;;;;;20.30;15.73;;;;;;;;;;5113726;28;20031;-53
2021/04/18 07:46:18;;;;;;;18.67;16.67;;;;;;;;;;5113594;28;20050;-51
2021/04/18 07:48:44;;;;;;;19.33;16.40;;;;;;;;;;5113664;28;20479;-50
2021/04/18 07:51:09;;;;;;;17.15;15.35;;;;;;;;;;5110658;28;20047;-52
2021/04/18 07:53:35;;;;;;;21.52;15.23;;;;;;;;;;5113389;28;20020;-51
2021/04/18 07:56:00;;;;;;;18.48;15.85;;;;;;;;;;5113261;28;20019;-52
2021/04/18 07:58:25;;;;;;;20.33;16.30;;;;;;;;;;5113418;28;20023;-47
2021/04/18 08:00:51;;;;;;;18.70;16.10;;;;;;;;;;5113242;28;20096;-50
2021/04/18 08:03:17;;;;;;;20.05;15.15;;;;;;;;;;5110963;28;20091;-54
2021/04/18 08:05:42;;;;;;;19.45;16.05;;;;;;;;;;5113260;28;20081;-53
2021/04/18 08:08:09;;;;;;;16.38;14.38;;;;;;;;;;5113179;28;20467;-53
2021/04/18 08:10:38;;;;;;;17.48;14.00;;;;;;;;;;5112775;28;20110;-53
2021/04/18 08:13:08;;;;;;;19.48;15.70;;;;;;;;;;5110132;28;20025;-53
2021/04/18 08:15:34;;;;;;;17.15;15.02;;;;;;;;;;5114080;28;20050;-51
2021/04/18 08:18:02;;;;;;;17.85;15.82;;;;;;;;;;5133955;27;20043;-52
2021/04/18 08:20:32;;;;;;;16.27;14.57;;;;;;;;;;5133485;27;20045;-53
2021/04/18 08:23:01;;;;;;;16.52;14.32;;;;;;;;;;5129338;27;20356;-51
2021/04/18 08:25:26;;;;;;;21.90;15.15;;;;;;;;;;5133509;27;20026;-53
2021/04/18 08:27:57;;;;;;;15.30;13.70;;;;;;;;;;5133610;27;20019;-52
2021/04/18 08:30:22;;;;;;;18.52;15.43;;;;;;;;;;5133363;28;20023;-53
2021/04/18 08:32:48;;;;;;;16.83;15.02;;;;;;;;;;5130811;28;20067;-54
2021/04/18 08:35:14;;;;;;;18.10;14.93;;;;;;;;;;5131959;28;20011;-53
2021/04/18 08:37:39;;;;;;;16.73;14.77;;;;;;;;;;5133450;27;20530;-53
2021/04/18 08:40:05;;;;;;;16.98;14.75;;;;;;;;;;5132938;28;20107;-53
2021/04/18 08:42:31;;;;;;;17.42;14.82;;;;;;;;;;5130594;27;20011;-50
2021/04/18 08:44:57;;;;;;;17.58;15.15;;;;;;;;;;5133429;28;20041;-50
2021/04/18 08:47:24;;;;;;;18.83;14.38;;;;;;;;;;5133377;27;20438;-50
2021/04/18 08:49:49;;;;;;;20.00;14.48;;;;;;;;;;5133333;27;20026;-51
2021/04/18 08:52:19;;;;;;;17.75;14.23;;;;;;;;;;5132763;27;20043;-50
2021/04/18 08:54:45;;;;;;;18.60;14.27;;;;;;;;;;5116702;28;20099;-54
2021/04/18 08:57:12;;;;;;;16.23;14.07;;;;;;;;;;5116426;28;20069;-53
2021/04/18 08:59:38;;;;;;;20.35;16.65;;;;;;;;;;5116719;28;20099;-52
2021/04/18 09:02:05;;;;;;;20.55;15.23;;;;;;;;;;5113598;27;20091;-53
2021/04/18 09:04:32;;;;;;;18.15;15.25;;;;;;;;;;5116418;27;20011;-54
2021/04/18 09:06:57;;;;;;;19.00;15.77;;;;;;;;;;5116960;28;20067;-51
2021/04/18 09:09:23;;;;;;;20.00;15.13;;;;;;;;;;5116758;28;20109;-53
2021/04/18 09:11:48;;;;;;;20.77;16.33;;;;;;;;;;5113251;28;20023;-52
2021/04/18 09:14:18;;;;;;;21.95;15.43;;;;;;;;;;5116638;28;20457;-52
2021/04/18 09:16:43;;;;;;;20.40;16.02;;;;;;;;;;5119441;27;20435;-53
2021/04/18 09:19:20;;;;;;;21.27;15.90;;;;;;;;;;5137048;27;20046;-49
2021/04/18 09:21:54;;;;;;;18.08;15.73;;;;;;;;;;5133851;27;20027;-52
2021/04/18 09:24:20;;;;;;;22.17;17.00;;;;;;;;;;5135790;27;20446;-51
2021/04/18 09:27:02;;;;;;;21.00;15.55;;;;;;;;;;5136728;27;20090;-50
2021/04/18 09:29:28;;;;;;;18.65;16.17;;;;;;;;;;5136627;27;20043;-50
2021/04/18 09:31:54;;;;;;;20.63;18.35;;;;;;;;;;5133414;27;20011;-52
2021/04/18 09:34:20;;;;;;;21.88;18.10;;;;;;;;;;5137186;27;20355;-53
2021/04/18 09:36:45;;;;;;;21.73;17.55;;;;;;;;;;5136793;27;20018;-50
2021/04/18 09:39:10;;;;;;;22.15;18.67;;;;;;;;;;5136707;27;20443;-51
2021/04/18 09:41:36;;;;;;;20.45;18.25;;;;;;;;;;5133262;27;20047;-53
2021/04/18 09:44:02;;;;;;;21.13;18.52;;;;;;;;;;5136680;27;20044;-50
2021/04/18 09:46:27;;;;;;;21.15;17.45;;;;;;;;;;5136601;27;20019;-53
2021/04/18 09:49:00;;;;;;;21.50;18.17;;;;;;;;;;5136528;27;20096;-53
2021/04/18 09:51:25;;;;;;;19.90;15.88;;;;;;;;;;5132926;27;20640;-51
2021/04/18 09:54:00;;;;;;;20.63;16.50;;;;;;;;;;5136390;27;20110;-52
2021/04/18 09:56:25;;;;;;;19.85;17.15;;;;;;;;;;5136162;27;20019;-52
2021/04/18 09:58:51;;;;;;;20.25;16.80;;;;;;;;;;5136368;27;20242;-51
2021/04/18 10:01:23;;;;;;;21.25;17.65;;;;;;;;;;5132490;27;20091;-48
2021/04/18 10:03:49;;;;;;;19.33;16.65;;;;;;;;;;5136299;27;20045;-47
2021/04/18 10:06:14;;;;;;;21.08;16.55;;;;;;;;;;5136166;27;20055;-48
2021/04/18 10:08:39;;;;;;;19.90;16.70;;;;;;;;;;5136138;27;20019;-52
2021/04/18 10:11:08;;;;;;;20.00;16.17;;;;;;;;;;5133694;27;20493;-52
2021/04/18 10:13:44;;;;;;;23.27;18.45;;;;;;;;;;5135545;27;20075;-51
2021/04/18 10:16:11;;;;;;;20.80;17.77;;;;;;;;;;5136262;27;20094;-51
2021/04/18 10:18:37;;;;;;;22.25;18.05;;;;;;;;;;5117157;27;20111;-46
2021/04/18 10:21:16;;;;;;;16.08;11.68;;;;;;;;;;5113667;28;20033;-53
2021/04/18 10:23:42;;;;;;;21.92;17.45;;;;;;;;;;5115451;28;20507;-48
2021/04/18 10:26:07;;;;;;;19.02;14.43;;;;;;;;;;5114780;28;20019;-49
2021/04/18 10:28:33;;;;;;;22.48;17.83;;;;;;;;;;5115147;28;20096;-50
2021/04/18 10:30:58;;;;;;;21.95;16.50;;;;;;;;;;5121944;27;20023;-50
2021/04/18 10:33:23;;;;;;;20.80;16.00;;;;;;;;;;5133802;27;20022;-52
2021/04/18 10:35:48;;;;;;;21.30;17.83;;;;;;;;;;5134357;27;20019;-53
2021/04/18 10:38:13;;;;;;;17.27;12.77;;;;;;;;;;5135559;27;20027;-52
2021/04/18 10:40:39;;;;;;;20.58;15.60;;;;;;;;;;5135169;27;20072;-54
2021/04/18 10:43:04;;;;;;;24.38;17.02;;;;;;;;;;5132418;27;20044;-53
2021/04/18 10:45:29;;;;;;;20.05;16.25;;;;;;;;;;5135826;27;20023;-54
2021/04/18 10:47:54;;;;;;;20.85;18.27;;;;;;;;;;5135520;27;20430;-49
2021/04/18 10:50:20;;;;;;;24.27;18.33;;;;;;;;;;5135245;27;20034;-51
2021/04/18 10:52:45;;;;;;;20.50;18.30;;;;;;;;;;5132011;27;20043;-51
2021/04/18 10:55:10;;;;;;;22.65;19.88;;;;;;;;;;5134945;27;20378;-51
2021/04/18 10:57:36;;;;;;;24.25;20.58;;;;;;;;;;5135212;27;20023;-51
2021/04/18 11:00:01;;;;;;;25.38;18.55;;;;;;;;;;5134752;27;20034;-51
2021/04/18 11:02:26;;;;;;;26.73;21.30;;;;;;;;;;5132033;27;20023;-50
2021/04/18 11:04:51;;;;;;;25.63;21.63;;;;;;;;;;5134716;27;20106;-54
2021/04/18 11:07:17;;;;;;;25.70;22.15;;;;;;;;;;5135158;27;20021;-46
2021/04/18 11:09:42;;;;;;;25.42;22.13;;;;;;;;;;5134759;27;20027;-48
2021/04/18 11:12:17;;;;;;;25.90;23.10;;;;;;;;;;5131548;27;20011;-50
2021/04/18 11:14:42;;;;;;;38.22;28.15;;;;;;;;;;5134538;27;20023;-45
2021/04/18 11:17:08;;;;;;;39.50;32.10;;;;;;;;;;5134778;27;20011;-50
2021/04/18 11:19:33;;;;;;;36.03;29.27;;;;;;;;;;5133205;27;20045;-52
2021/04/18 11:21:58;;;;;;;39.08;31.67;;;;;;;;;;5131609;27;20015;-54
2021/04/18 11:24:23;;;;;;;39.95;32.83;;;;;;;;;;5134682;27;20466;-51
2021/04/18 11:26:49;;;;;;;43.70;36.05;;;;;;;;;;5134489;27;20470;-48
2021/04/18 11:29:14;;;;;;;39.83;33.08;;;;;;;;;;5134502;27;20040;-50
2021/04/18 11:31:39;;;;;;;40.47;33.88;;;;;;;;;;5131079;27;20015;-54
2021/04/18 11:34:05;;;;;;;39.75;32.80;;;;;;;;;;5134577;27;20017;-53
2021/04/18 11:36:30;;;;;;;36.10;31.55;;;;;;;;;;5134514;27;20015;-51
2021/04/18 11:38:55;;;;;;;35.05;30.52;;;;;;;;;;5134237;27;20019;-50
2021/04/18 11:41:20;;;;;;;34.10;28.27;;;;;;;;;;5130963;27;20019;-52
2021/04/18 11:43:46;;;;;;;35.05;28.58;;;;;;;;;;5134302;27;20023;-51
2021/04/18 11:46:11;;;;;;;33.38;27.15;;;;;;;;;;5134208;27;20027;-49
2021/04/18 11:48:37;;;;;;;31.05;26.88;;;;;;;;;;5132788;27;20019;-50
2021/04/18 11:51:02;;;;;;;32.28;27.80;;;;;;;;;;5131900;27;20142;-49
2021/04/18 11:53:28;;;;;;;30.98;25.30;;;;;;;;;;5129094;27;20086;-52
2021/04/18 11:55:53;;;;;;;39.17;26.95;;;;;;;;;;5113062;28;20027;-53
2021/04/18 11:58:18;;;;;;;31.42;25.40;;;;;;;;;;5113555;28;20015;-52
2021/04/18 12:00:43;;;;;;;29.20;25.23;;;;;;;;;;5113251;28;20027;-50
2021/04/18 12:03:09;;;;;;;25.88;22.92;;;;;;;;;;5110242;28;20493;-54
2021/04/18 12:05:34;;;;;;;26.60;22.80;;;;;;;;;;5113258;28;20027;-50
2021/04/18 12:08:00;;;;;;;29.70;23.75;;;;;;;;;;5113200;28;20034;-51
2021/04/18 12:10:25;;;;;;;25.48;20.85;;;;;;;;;;5112770;28;20047;-54
2021/04/18 12:12:50;;;;;;;22.55;20.13;;;;;;;;;;5110194;28;20020;-51
2021/04/18 12:15:16;;;;;;;21.85;19.25;;;;;;;;;;5113284;28;20026;-49
2021/04/18 12:17:41;;;;;;;21.80;19.15;;;;;;;;;;5113114;28;20455;-52
2021/04/18 12:20:08;;;;;;;21.95;19.70;;;;;;;;;;5132476;27;20023;-49
2021/04/18 12:22:33;;;;;;;21.35;19.05;;;;;;;;;;5130638;27;20079;-52
2021/04/18 12:24:59;;;;;;;18.75;16.45;;;;;;;;;;5133380;27;20027;-52
2021/04/18 12:27:25;;;;;;;18.10;16.23;;;;;;;;;;5133409;27;20015;-53
2021/04/18 12:29:50;;;;;;;17.85;15.93;;;;;;;;;;5133374;27;20415;-52
2021/04/18 12:32:15;;;;;;;19.17;17.13;;;;;;;;;;5130452;27;20023;-53
2021/04/18 12:34:41;;;;;;;19.27;17.10;;;;;;;;;;5133431;28;20019;-54
2021/04/18 12:37:07;;;;;;;18.83;16.83;;;;;;;;;;5133459;28;20107;-51
2021/04/18 12:39:32;;;;;;;20.38;18.38;;;;;;;;;;5133105;27;20026;-51
2021/04/18 12:41:58;;;;;;;18.52;16.08;;;;;;;;;;5130116;28;20015;-50
2021/04/18 12:44:23;;;;;;;15.60;13.95;;;;;;;;;;5132198;28;20019;-50
2021/04/18 12:46:48;;;;;;;17.88;15.48;;;;;;;;;;5133595;28;20023;-53
2021/04/18 12:49:13;;;;;;;14.82;13.27;;;;;;;;;;5133446;28;20069;-53
2021/04/18 12:51:38;;;;;;;15.70;13.35;;;;;;;;;;5130096;27;20077;-54
2021/04/18 12:54:06;;;;;;;17.63;15.20;;;;;;;;;;5133270;28;20015;-54
2021/04/18 12:56:33;;;;;;;18.52;15.25;;;;;;;;;;5133230;27;20102;-53
2021/04/18 12:58:58;;;;;;;16.42;13.27;;;;;;;;;;5133288;27;20029;-53
2021/04/18 13:01:23;;;;;;;14.05;12.48;;;;;;;;;;5130009;28;20499;-52
2021/04/18 13:03:49;;;;;;;13.80;11.20;;;;;;;;;;5133350;28;20019;-52
2021/04/18 13:06:14;;;;;;;13.77;12.35;;;;;;;;;;5133233;27;20088;-51
2021/04/18 13:08:39;;;;;;;12.30;11.00;;;;;;;;;;5133093;28;20352;-53
2021/04/18 13:11:04;;;;;;;10.63;9.60;;;;;;;;;;5130717;27;20011;-51
2021/04/18 13:13:30;;;;;;;11.43;10.32;;;;;;;;;;5132023;27;20110;-52
2021/04/18 13:15:55;;;;;;;12.50;11.23;;;;;;;;;;5133106;27;20035;-51
2021/04/18 13:18:20;;;;;;;12.07;10.52;;;;;;;;;;5133179;27;20016;-48
2021/04/18 13:20:45;;;;;;;15.13;11.98;;;;;;;;;;5132762;28;20016;-53
2021/04/18 13:23:11;;;;;;;13.50;12.18;;;;;;;;;;5129959;28;20080;-51
2021/04/18 13:25:37;;;;;;;14.93;12.05;;;;;;;;;;5131486;28;20015;-51
2021/04/18 13:28:02;;;;;;;12.77;11.48;;;;;;;;;;5132874;27;20034;-50
2021/04/18 13:30:27;;;;;;;11.60;10.40;;;;;;;;;;5132602;28;20015;-53
2021/04/18 13:32:53;;;;;;;12.05;10.50;;;;;;;;;;5129911;28;20022;-52
2021/04/18 13:35:18;;;;;;;9.95;8.95;;;;;;;;;;5133079;27;20053;-52
2021/04/18 13:37:44;;;;;;;9.80;8.80;;;;;;;;;;5135909;27;20019;-49
2021/04/18 13:40:10;;;;;;;8.88;7.97;;;;;;;;;;5136317;27;20019;-53
2021/04/18 13:42:36;;;;;;;10.52;9.43;;;;;;;;;;5133712;27;20516;-51
2021/04/18 13:45:02;;;;;;;10.15;9.15;;;;;;;;;;5136376;27;20027;-51
2021/04/18 13:47:27;;;;;;;11.05;9.82;;;;;;;;;;5136584;27;20015;-52
2021/04/18 13:49:52;;;;;;;11.20;10.20;;;;;;;;;;5136175;27;20060;-52
2021/04/18 13:52:18;;;;;;;10.85;9.77;;;;;;;;;;5133197;27;20035;-53
2021/04/18 13:54:43;;;;;;;11.18;10.00;;;;;;;;;;5136141;27;20015;-54
2021/04/18 13:57:08;;;;;;;11.43;10.23;;;;;;;;;;5135674;27;20019;-53
2021/04/18 13:59:33;;;;;;;13.55;11.40;;;;;;;;;;5136165;27;20042;-51
2021/04/18 14:01:59;;;;;;;13.27;11.88;;;;;;;;;;5133162;27;20020;-53
2021/04/18 14:04:24;;;;;;;12.10;10.90;;;;;;;;;;5136153;27;20019;-54
2021/04/18 14:06:49;;;;;;;11.20;10.02;;;;;;;;;;5136221;27;20019;-50
2021/04/18 14:09:14;;;;;;;11.43;9.38;;;;;;;;;;5136417;27;20023;-51
2021/04/18 14:11:40;;;;;;;11.68;10.43;;;;;;;;;;5132711;27;20094;-53